Eskdalemuir, United Kingdom

11:55 PM BST on August 28, 2016 (GMT +0100)
village | | Change Station

Elev 184 ft 55.13 °N, 3.44 °W | Updated 11 seconds ago

Clear
Clear
54.1 °F
Feels Like 54.1 °F
N
0.0
Wind Variable Wind from SE
Gusts 0.0 mph

Today
High -- | Low -- °F
--% Chance of Precip.
Yesterday
High -- | Low -- °F
Precip. -- in
Pressure 30.04 in
Visibility -9999.0 miles
Clouds
Dew Point 53 °F
Humidity 96%
Rainfall 0.05 in
Snow Depth Not available.
6:11 AM 8:14 PM
Waning Crescent, 13% visible
METAR EGPH 282250Z 27004KT CAVOK 12/11 Q1017
Pressure 30.04 in
Visibility -9999.0 miles
Clouds
Dew Point 53 °F
Humidity 96%
Rainfall 0.05 in
Snow Depth Not available.
6:11 AM 8:14 PM
Waning Crescent, 13% visible
METAR EGPH 282250Z 27004KT CAVOK 12/11 Q1017

10-Day Weather Forecast

×

Almanac

Astronomy

Aug. 28, 2016 Rise Set
Actual Time
Civil Twilight
Nautical Twilight
Astronomical Twilight
Moon
Length of Visible Light
Length of Day
Tomorrow will be .
, % of the Moon is Illuminated

Today's Extremes

Country Highs Country Lows

Community

WunderPhotos

Upload Photos

1,935,705 photos uploaded!

WunderBlog® & News

Nearby

Air Quality

  Air Quality AQ Index Pollutant
Not available.

Snow Depth

Station Depth Elevation

Earthquake Activity

City Distance Mag. Time & Date
Minimum magnitude displayed is 2.5.

Coastal Water Temperatures

Place Temperature

Stations

Nearby Weather Stations

Station Location Temp. Windchill Dew Point Humidity Wind Precip. Elev Updated Type